sensor_id;sensor_type;location;lat;lon;timestamp;pressure;altitude;pressure_sealevel;temperature;humidity
19236;BME280;9752;54.270;12.470;2023-02-12T00:01:14;103835.94;;;4.67;100.00
19236;BME280;9752;54.270;12.470;2023-02-12T00:06:16;103834.28;;;4.55;100.00
19236;BME280;9752;54.270;12.470;2023-02-12T00:11:21;103842.63;;;4.59;100.00
19236;BME280;9752;54.270;12.470;2023-02-12T00:16:25;103860.09;;;4.62;100.00
19236;BME280;9752;54.270;12.470;2023-02-12T00:21:27;103880.56;;;4.67;100.00
19236;BME280;9752;54.270;12.470;2023-02-12T00:26:30;103897.03;;;4.75;100.00
19236;BME280;9752;54.270;12.470;2023-02-12T00:31:32;103913.47;;;4.83;100.00
19236;BME280;9752;54.270;12.470;2023-02-12T00:36:34;103912.75;;;4.84;100.00
19236;BME280;9752;54.270;12.470;2023-02-12T00:41:37;103922.41;;;4.92;100.00
19236;BME280;9752;54.270;12.470;2023-02-12T00:46:39;103927.34;;;4.91;100.00
19236;BME280;9752;54.270;12.470;2023-02-12T00:51:40;103922.09;;;4.96;100.00
19236;BME280;9752;54.270;12.470;2023-02-12T00:56:45;103924.97;;;4.92;100.00
19236;BME280;9752;54.270;12.470;2023-02-12T01:01:47;103935.81;;;4.89;100.00
19236;BME280;9752;54.270;12.470;2023-02-12T01:06:49;103946.59;;;4.87;100.00
19236;BME280;9752;54.270;12.470;2023-02-12T01:11:52;103958.22;;;4.78;100.00
19236;BME280;9752;54.270;12.470;2023-02-12T01:16:54;103963.78;;;4.81;100.00
19236;BME280;9752;54.270;12.470;2023-02-12T01:21:56;103966.66;;;4.77;100.00
19236;BME280;9752;54.270;12.470;2023-02-12T01:26:59;103963.66;;;4.74;100.00
19236;BME280;9752;54.270;12.470;2023-02-12T01:32:02;103969.94;;;4.76;100.00
19236;BME280;9752;54.270;12.470;2023-02-12T01:37:04;103974.38;;;4.77;100.00
19236;BME280;9752;54.270;12.470;2023-02-12T01:42:11;103992.06;;;4.81;100.00
19236;BME280;9752;54.270;12.470;2023-02-12T01:47:16;103989.50;;;4.81;100.00
19236;BME280;9752;54.270;12.470;2023-02-12T01:52:22;104000.56;;;4.74;100.00
19236;BME280;9752;54.270;12.470;2023-02-12T01:57:28;104008.22;;;4.67;100.00
19236;BME280;9752;54.270;12.470;2023-02-12T02:02:33;104016.72;;;4.60;100.00
19236;BME280;9752;54.270;12.470;2023-02-12T02:07:35;104020.72;;;4.58;100.00
19236;BME280;9752;54.270;12.470;2023-02-12T02:12:39;104018.06;;;4.64;100.00
19236;BME280;9752;54.270;12.470;2023-02-12T02:18:01;104041.22;;;4.77;100.00
19236;BME280;9752;54.270;12.470;2023-02-12T02:23:21;104047.53;;;4.92;100.00
19236;BME280;9752;54.270;12.470;2023-02-12T02:28:58;104053.28;;;4.96;100.00
19236;BME280;9752;54.270;12.470;2023-02-12T02:34:09;104060.69;;;5.00;100.00
19236;BME280;9752;54.270;12.470;2023-02-12T02:39:23;104073.97;;;5.03;100.00
19236;BME280;9752;54.270;12.470;2023-02-12T02:44:30;104075.44;;;5.01;100.00
19236;BME280;9752;54.270;12.470;2023-02-12T02:49:38;104082.53;;;5.09;100.00
19236;BME280;9752;54.270;12.470;2023-02-12T02:54:43;104084.50;;;5.05;100.00
19236;BME280;9752;54.270;12.470;2023-02-12T02:59:48;104087.56;;;5.15;100.00
19236;BME280;9752;54.270;12.470;2023-02-12T03:04:57;104089.63;;;5.18;100.00
19236;BME280;9752;54.270;12.470;2023-02-12T03:10:03;104099.41;;;5.20;100.00
19236;BME280;9752;54.270;12.470;2023-02-12T03:15:09;104090.47;;;5.24;100.00
19236;BME280;9752;54.270;12.470;2023-02-12T03:20:17;104095.63;;;5.24;100.00
19236;BME280;9752;54.270;12.470;2023-02-12T03:25:22;104097.88;;;5.15;100.00
19236;BME280;9752;54.270;12.470;2023-02-12T03:30:32;104106.50;;;5.16;100.00
19236;BME280;9752;54.270;12.470;2023-02-12T03:35:42;104106.50;;;5.16;100.00
19236;BME280;9752;54.270;12.470;2023-02-12T03:40:51;104119.47;;;5.10;100.00
19236;BME280;9752;54.270;12.470;2023-02-12T03:45:58;104126.34;;;5.04;100.00
19236;BME280;9752;54.270;12.470;2023-02-12T03:51:04;104134.91;;;4.97;100.00
19236;BME280;9752;54.270;12.470;2023-02-12T03:56:13;104143.09;;;4.95;100.00
19236;BME280;9752;54.270;12.470;2023-02-12T04:01:16;104142.50;;;4.90;100.00
19236;BME280;9752;54.270;12.470;2023-02-12T04:06:22;104146.91;;;4.91;100.00
19236;BME280;9752;54.270;12.470;2023-02-12T04:11:29;104152.47;;;4.94;100.00
19236;BME280;9752;54.270;12.470;2023-02-12T04:16:40;104163.78;;;4.89;100.00
19236;BME280;9752;54.270;12.470;2023-02-12T04:21:52;104178.34;;;5.01;100.00
19236;BME280;9752;54.270;12.470;2023-02-12T04:26:59;104188.00;;;5.09;100.00
19236;BME280;9752;54.270;12.470;2023-02-12T04:32:10;104182.16;;;5.11;100.00
19236;BME280;9752;54.270;12.470;2023-02-12T04:37:16;104181.72;;;5.07;100.00
19236;BME280;9752;54.270;12.470;2023-02-12T04:42:19;104195.53;;;5.08;100.00
19236;BME280;9752;54.270;12.470;2023-02-12T04:47:21;104203.75;;;5.05;100.00
19236;BME280;9752;54.270;12.470;2023-02-12T04:52:24;104221.63;;;4.98;100.00
19236;BME280;9752;54.270;12.470;2023-02-12T04:57:26;104229.44;;;4.93;100.00
19236;BME280;9752;54.270;12.470;2023-02-12T05:02:27;104227.28;;;4.96;100.00
19236;BME280;9752;54.270;12.470;2023-02-12T05:07:30;104221.50;;;4.91;100.00
19236;BME280;9752;54.270;12.470;2023-02-12T05:12:32;104227.06;;;4.94;100.00
19236;BME280;9752;54.270;12.470;2023-02-12T05:17:34;104230.09;;;4.97;100.00
19236;BME280;9752;54.270;12.470;2023-02-12T05:22:37;104234.50;;;4.98;100.00
19236;BME280;9752;54.270;12.470;2023-02-12T05:27:39;104235.63;;;5.00;100.00
19236;BME280;9752;54.270;12.470;2023-02-12T05:32:40;104249.78;;;5.09;100.00
19236;BME280;9752;54.270;12.470;2023-02-12T05:37:43;104251.50;;;5.03;100.00
19236;BME280;9752;54.270;12.470;2023-02-12T05:42:45;104240.28;;;5.03;100.00
19236;BME280;9752;54.270;12.470;2023-02-12T05:47:47;104260.66;;;5.01;100.00
19236;BME280;9752;54.270;12.470;2023-02-12T05:52:50;104270.50;;;4.98;100.00
19236;BME280;9752;54.270;12.470;2023-02-12T05:57:51;104271.34;;;5.04;100.00
19236;BME280;9752;54.270;12.470;2023-02-12T06:02:53;104274.38;;;5.07;100.00
19236;BME280;9752;54.270;12.470;2023-02-12T06:07:56;104289.19;;;5.16;100.00
19236;BME280;9752;54.270;12.470;2023-02-12T06:12:58;104285.94;;;5.17;100.00
19236;BME280;9752;54.270;12.470;2023-02-12T06:18:00;104287.00;;;5.24;100.00
19236;BME280;9752;54.270;12.470;2023-02-12T06:23:03;104297.19;;;5.30;100.00
19236;BME280;9752;54.270;12.470;2023-02-12T06:28:05;104306.28;;;5.34;100.00
19236;BME280;9752;54.270;12.470;2023-02-12T06:33:06;104307.41;;;5.36;100.00
19236;BME280;9752;54.270;12.470;2023-02-12T06:38:09;104304.63;;;5.34;100.00
19236;BME280;9752;54.270;12.470;2023-02-12T06:43:11;104302.03;;;5.34;100.00
19236;BME280;9752;54.270;12.470;2023-02-12T06:48:13;104312.25;;;5.40;100.00
19236;BME280;9752;54.270;12.470;2023-02-12T06:53:16;104312.47;;;5.41;100.00
19236;BME280;9752;54.270;12.470;2023-02-12T06:58:17;104314.75;;;5.45;100.00
19236;BME280;9752;54.270;12.470;2023-02-12T07:03:19;104316.19;;;5.43;100.00
19236;BME280;9752;54.270;12.470;2023-02-12T07:08:22;104318.16;;;5.52;100.00
19236;BME280;9752;54.270;12.470;2023-02-12T07:13:24;104318.06;;;5.57;100.00
19236;BME280;9752;54.270;12.470;2023-02-12T07:18:25;104326.53;;;5.56;100.00
19236;BME280;9752;54.270;12.470;2023-02-12T07:23:28;104330.03;;;5.57;100.00
19236;BME280;9752;54.270;12.470;2023-02-12T07:28:30;104325.84;;;5.70;100.00
19236;BME280;9752;54.270;12.470;2023-02-12T07:33:32;104324.47;;;5.66;100.00
19236;BME280;9752;54.270;12.470;2023-02-12T07:38:36;104332.00;;;5.65;100.00
19236;BME280;9752;54.270;12.470;2023-02-12T07:43:39;104336.97;;;5.63;100.00
19236;BME280;9752;54.270;12.470;2023-02-12T07:48:42;104328.47;;;5.52;100.00
19236;BME280;9752;54.270;12.470;2023-02-12T07:53:45;104330.56;;;5.67;100.00
19236;BME280;9752;54.270;12.470;2023-02-12T07:58:49;104324.78;;;5.62;100.00
19236;BME280;9752;54.270;12.470;2023-02-12T08:03:51;104321.69;;;5.65;100.00
19236;BME280;9752;54.270;12.470;2023-02-12T08:08:56;104319.63;;;5.62;100.00
19236;BME280;9752;54.270;12.470;2023-02-12T08:13:58;104316.63;;;5.46;100.00
19236;BME280;9752;54.270;12.470;2023-02-12T08:19:00;104324.03;;;5.51;100.00
19236;BME280;9752;54.270;12.470;2023-02-12T08:24:03;104331.47;;;5.55;100.00
19236;BME280;9752;54.270;12.470;2023-02-12T08:29:07;104326.09;;;5.53;100.00
19236;BME280;9752;54.270;12.470;2023-02-12T08:34:16;104334.75;;;5.54;100.00
19236;BME280;9752;54.270;12.470;2023-02-12T08:39:20;104346.47;;;5.52;100.00
19236;BME280;9752;54.270;12.470;2023-02-12T08:44:22;104342.78;;;5.50;100.00
19236;BME280;9752;54.270;12.470;2023-02-12T08:49:25;104353.59;;;5.47;100.00
19236;BME280;9752;54.270;12.470;2023-02-12T08:54:29;104363.81;;;5.34;100.00
19236;BME280;9752;54.270;12.470;2023-02-12T08:59:31;104370.56;;;5.39;100.00
19236;BME280;9752;54.270;12.470;2023-02-12T09:04:34;104361.25;;;5.34;100.00
19236;BME280;9752;54.270;12.470;2023-02-12T09:09:37;104361.00;;;5.51;100.00
19236;BME280;9752;54.270;12.470;2023-02-12T09:14:39;104379.75;;;5.50;100.00
19236;BME280;9752;54.270;12.470;2023-02-12T09:19:40;104377.88;;;5.67;100.00
19236;BME280;9752;54.270;12.470;2023-02-12T09:24:43;104378.91;;;5.75;100.00
19236;BME280;9752;54.270;12.470;2023-02-12T09:29:45;104381.88;;;5.97;100.00
19236;BME280;9752;54.270;12.470;2023-02-12T09:34:47;104373.38;;;5.85;100.00
19236;BME280;9752;54.270;12.470;2023-02-12T09:39:50;104370.72;;;5.91;100.00
19236;BME280;9752;54.270;12.470;2023-02-12T09:44:57;104354.09;;;6.07;100.00
19236;BME280;9752;54.270;12.470;2023-02-12T09:50:11;104359.66;;;6.23;100.00
19236;BME280;9752;54.270;12.470;2023-02-12T09:55:21;104338.50;;;6.13;100.00
19236;BME280;9752;54.270;12.470;2023-02-12T10:00:28;104325.41;;;6.11;100.00
19236;BME280;9752;54.270;12.470;2023-02-12T10:05:34;104324.59;;;6.31;100.00
19236;BME280;9752;54.270;12.470;2023-02-12T10:10:47;104301.59;;;6.06;100.00
19236;BME280;9752;54.270;12.470;2023-02-12T10:15:54;104297.03;;;6.24;100.00
19236;BME280;9752;54.270;12.470;2023-02-12T10:21:07;104287.25;;;6.34;100.00
19236;BME280;9752;54.270;12.470;2023-02-12T10:26:18;104273.22;;;6.45;100.00
19236;BME280;9752;54.270;12.470;2023-02-12T10:31:26;104257.47;;;6.11;100.00
19236;BME280;9752;54.270;12.470;2023-02-12T10:36:37;104246.22;;;6.10;100.00
19236;BME280;9752;54.270;12.470;2023-02-12T10:41:44;104250.38;;;6.15;100.00
19236;BME280;9752;54.270;12.470;2023-02-12T10:46:48;104251.94;;;6.53;100.00
19236;BME280;9752;54.270;12.470;2023-02-12T10:51:59;104252.94;;;6.28;100.00
19236;BME280;9752;54.270;12.470;2023-02-12T10:57:23;104235.78;;;6.41;100.00
19236;BME280;9752;54.270;12.470;2023-02-12T11:02:27;104226.81;;;6.45;100.00
19236;BME280;9752;54.270;12.470;2023-02-12T11:07:45;104221.75;;;6.72;100.00
19236;BME280;9752;54.270;12.470;2023-02-12T11:12:49;104217.50;;;6.73;100.00
19236;BME280;9752;54.270;12.470;2023-02-12T11:17:56;104206.19;;;6.45;100.00
19236;BME280;9752;54.270;12.470;2023-02-12T11:23:00;104213.63;;;6.56;100.00
19236;BME280;9752;54.270;12.470;2023-02-12T11:28:14;104213.09;;;6.72;100.00
19236;BME280;9752;54.270;12.470;2023-02-12T11:33:22;104195.41;;;6.75;100.00
19236;BME280;9752;54.270;12.470;2023-02-12T11:38:30;104185.47;;;6.91;100.00
19236;BME280;9752;54.270;12.470;2023-02-12T11:43:35;104190.22;;;7.08;100.00
19236;BME280;9752;54.270;12.470;2023-02-12T11:48:39;104173.63;;;7.13;100.00
19236;BME280;9752;54.270;12.470;2023-02-12T11:53:46;104171.66;;;7.17;100.00
19236;BME280;9752;54.270;12.470;2023-02-12T11:58:51;104176.97;;;7.12;100.00
19236;BME280;9752;54.270;12.470;2023-02-12T12:03:58;104164.00;;;7.04;100.00
19236;BME280;9752;54.270;12.470;2023-02-12T12:09:04;104161.84;;;7.15;100.00
19236;BME280;9752;54.270;12.470;2023-02-12T12:14:15;104144.91;;;7.17;100.00
19236;BME280;9752;54.270;12.470;2023-02-12T12:19:23;104137.44;;;7.06;100.00
19236;BME280;9752;54.270;12.470;2023-02-12T12:24:51;104112.09;;;7.16;100.00
19236;BME280;9752;54.270;12.470;2023-02-12T12:29:58;104106.09;;;7.30;100.00
19236;BME280;9752;54.270;12.470;2023-02-12T12:35:09;104085.44;;;7.02;100.00
19236;BME280;9752;54.270;12.470;2023-02-12T12:40:23;104078.88;;;7.12;100.00
19236;BME280;9752;54.270;12.470;2023-02-12T12:51:11;104056.31;;;7.03;100.00
19236;BME280;9752;54.270;12.470;2023-02-12T12:56:27;104038.63;;;7.07;100.00
19236;BME280;9752;54.270;12.470;2023-02-12T13:02:03;104020.66;;;7.21;100.00
19236;BME280;9752;54.270;12.470;2023-02-12T13:07:23;103997.84;;;7.31;100.00
19236;BME280;9752;54.270;12.470;2023-02-12T13:12:54;103994.53;;;7.39;100.00
19236;BME280;9752;54.270;12.470;2023-02-12T13:18:04;103993.22;;;7.29;100.00
19236;BME280;9752;54.270;12.470;2023-02-12T13:23:13;103984.22;;;7.32;100.00
19236;BME280;9752;54.270;12.470;2023-02-12T13:28:25;103974.09;;;7.48;100.00
19236;BME280;9752;54.270;12.470;2023-02-12T13:33:39;103960.59;;;7.43;100.00
19236;BME280;9752;54.270;12.470;2023-02-12T13:38:46;103955.16;;;7.69;100.00
19236;BME280;9752;54.270;12.470;2023-02-12T13:43:57;103942.38;;;7.56;100.00
19236;BME280;9752;54.270;12.470;2023-02-12T13:49:12;103934.84;;;7.58;100.00
19236;BME280;9752;54.270;12.470;2023-02-12T13:54:36;103918.44;;;7.65;100.00
19236;BME280;9752;54.270;12.470;2023-02-12T13:59:46;103911.97;;;7.68;100.00
19236;BME280;9752;54.270;12.470;2023-02-12T14:04:55;103897.22;;;7.74;100.00
19236;BME280;9752;54.270;12.470;2023-02-12T14:10:02;103898.53;;;7.78;100.00
19236;BME280;9752;54.270;12.470;2023-02-12T14:15:06;103884.66;;;7.77;100.00
19236;BME280;9752;54.270;12.470;2023-02-12T14:20:26;103879.88;;;7.73;100.00
19236;BME280;9752;54.270;12.470;2023-02-12T14:25:37;103882.84;;;7.84;100.00
19236;BME280;9752;54.270;12.470;2023-02-12T14:30:40;103872.13;;;7.80;100.00
19236;BME280;9752;54.270;12.470;2023-02-12T14:35:44;103871.00;;;7.71;100.00
19236;BME280;9752;54.270;12.470;2023-02-12T14:40:47;103872.13;;;7.59;100.00
19236;BME280;9752;54.270;12.470;2023-02-12T14:45:49;103870.63;;;7.61;100.00
19236;BME280;9752;54.270;12.470;2023-02-12T14:50:52;103885.03;;;7.59;100.00
19236;BME280;9752;54.270;12.470;2023-02-12T14:55:55;103884.66;;;7.63;100.00
19236;BME280;9752;54.270;12.470;2023-02-12T15:00:59;103888.72;;;7.61;100.00
19236;BME280;9752;54.270;12.470;2023-02-12T15:06:08;103889.97;;;7.50;100.00
19236;BME280;9752;54.270;12.470;2023-02-12T15:11:20;103895.72;;;7.48;100.00
19236;BME280;9752;54.270;12.470;2023-02-12T15:16:30;103896.78;;;7.35;100.00
19236;BME280;9752;54.270;12.470;2023-02-12T15:21:36;103898.03;;;7.24;100.00
19236;BME280;9752;54.270;12.470;2023-02-12T15:26:39;103899.31;;;7.21;100.00
19236;BME280;9752;54.270;12.470;2023-02-12T15:31:42;103910.91;;;7.10;100.00
19236;BME280;9752;54.270;12.470;2023-02-12T15:36:45;103911.44;;;7.15;100.00
19236;BME280;9752;54.270;12.470;2023-02-12T15:41:47;103912.19;;;7.14;100.00
19236;BME280;9752;54.270;12.470;2023-02-12T15:46:57;103918.84;;;7.12;100.00
19236;BME280;9752;54.270;12.470;2023-02-12T15:52:03;103911.81;;;7.11;100.00
19236;BME280;9752;54.270;12.470;2023-02-12T15:57:11;103916.63;;;7.08;100.00
19236;BME280;9752;54.270;12.470;2023-02-12T16:02:18;103919.50;;;7.03;100.00
19236;BME280;9752;54.270;12.470;2023-02-12T16:07:23;103920.63;;;6.98;100.00
19236;BME280;9752;54.270;12.470;2023-02-12T16:12:29;103930.38;;;7.01;100.00
19236;BME280;9752;54.270;12.470;2023-02-12T16:17:33;103942.00;;;6.97;100.00
19236;BME280;9752;54.270;12.470;2023-02-12T16:22:38;103960.97;;;6.98;100.00
19236;BME280;9752;54.270;12.470;2023-02-12T16:27:40;103962.22;;;6.94;100.00
19236;BME280;9752;54.270;12.470;2023-02-12T16:32:50;103953.69;;;6.81;100.00
19236;BME280;9752;54.270;12.470;2023-02-12T16:37:58;103958.69;;;6.79;100.00
19236;BME280;9752;54.270;12.470;2023-02-12T16:43:03;103952.72;;;6.73;100.00
19236;BME280;9752;54.270;12.470;2023-02-12T16:48:19;103964.69;;;6.73;100.00
19236;BME280;9752;54.270;12.470;2023-02-12T16:53:41;103964.50;;;6.71;100.00
19236;BME280;9752;54.270;12.470;2023-02-12T16:58:47;103960.28;;;6.72;100.00
19236;BME280;9752;54.270;12.470;2023-02-12T17:03:50;103963.19;;;6.68;100.00
19236;BME280;9752;54.270;12.470;2023-02-12T17:08:53;103990.28;;;6.71;100.00
19236;BME280;9752;54.270;12.470;2023-02-12T17:13:56;103992.34;;;6.74;100.00
19236;BME280;9752;54.270;12.470;2023-02-12T17:18:58;104005.78;;;6.71;100.00
19236;BME280;9752;54.270;12.470;2023-02-12T17:24:01;104019.22;;;6.69;100.00
19236;BME280;9752;54.270;12.470;2023-02-12T17:29:03;104033.66;;;6.81;100.00
19236;BME280;9752;54.270;12.470;2023-02-12T17:34:05;104044.03;;;6.88;100.00
19236;BME280;9752;54.270;12.470;2023-02-12T17:39:10;104056.81;;;6.94;100.00
19236;BME280;9752;54.270;12.470;2023-02-12T17:44:13;104075.47;;;6.98;100.00
19236;BME280;9752;54.270;12.470;2023-02-12T17:49:15;104091.13;;;7.00;100.00
19236;BME280;9752;54.270;12.470;2023-02-12T17:54:18;104093.69;;;7.00;100.00
19236;BME280;9752;54.270;12.470;2023-02-12T17:59:20;104096.88;;;7.04;100.00
19236;BME280;9752;54.270;12.470;2023-02-12T18:04:22;104105.34;;;7.03;100.00
19236;BME280;9752;54.270;12.470;2023-02-12T18:09:24;104103.16;;;7.07;100.00
19236;BME280;9752;54.270;12.470;2023-02-12T18:14:26;104098.94;;;7.07;100.00
19236;BME280;9752;54.270;12.470;2023-02-12T18:19:28;104100.94;;;7.02;100.00
19236;BME280;9752;54.270;12.470;2023-02-12T18:24:31;104102.06;;;7.04;100.00
19236;BME280;9752;54.270;12.470;2023-02-12T18:29:34;104100.53;;;6.99;100.00
19236;BME280;9752;54.270;12.470;2023-02-12T18:34:36;104099.81;;;7.00;100.00
19236;BME280;9752;54.270;12.470;2023-02-12T18:39:39;104099.81;;;7.00;100.00
19236;BME280;9752;54.270;12.470;2023-02-12T18:44:41;104082.25;;;6.98;100.00
19236;BME280;9752;54.270;12.470;2023-02-12T18:49:43;104074.53;;;6.98;100.00
19236;BME280;9752;54.270;12.470;2023-02-12T18:54:46;104083.53;;;6.94;100.00
19236;BME280;9752;54.270;12.470;2023-02-12T18:59:47;104074.28;;;6.89;100.00
19236;BME280;9752;54.270;12.470;2023-02-12T19:04:49;104076.09;;;6.83;100.00
19236;BME280;9752;54.270;12.470;2023-02-12T19:09:52;104086.41;;;6.83;100.00
19236;BME280;9752;54.270;12.470;2023-02-12T19:14:54;104099.31;;;6.83;100.00
19236;BME280;9752;54.270;12.470;2023-02-12T19:19:55;104089.78;;;6.69;100.00
19236;BME280;9752;54.270;12.470;2023-02-12T19:24:58;104095.53;;;6.54;100.00
19236;BME280;9752;54.270;12.470;2023-02-12T19:30:03;104096.00;;;6.44;100.00
19236;BME280;9752;54.270;12.470;2023-02-12T19:35:05;104098.13;;;6.34;100.00
19236;BME280;9752;54.270;12.470;2023-02-12T19:40:11;104095.72;;;6.35;100.00
19236;BME280;9752;54.270;12.470;2023-02-12T19:45:12;104101.41;;;6.33;100.00
19236;BME280;9752;54.270;12.470;2023-02-12T19:50:14;104104.19;;;6.34;100.00
19236;BME280;9752;54.270;12.470;2023-02-12T19:55:17;104109.56;;;6.36;100.00
19236;BME280;9752;54.270;12.470;2023-02-12T20:00:19;104117.69;;;6.39;100.00
19236;BME280;9752;54.270;12.470;2023-02-12T20:05:21;104107.78;;;6.42;100.00
19236;BME280;9752;54.270;12.470;2023-02-12T20:10:24;104100.25;;;6.43;100.00
19236;BME280;9752;54.270;12.470;2023-02-12T20:15:25;104079.41;;;6.42;100.00
19236;BME280;9752;54.270;12.470;2023-02-12T20:20:27;104078.66;;;6.43;100.00
19236;BME280;9752;54.270;12.470;2023-02-12T20:25:30;104073.84;;;6.39;100.00
19236;BME280;9752;54.270;12.470;2023-02-12T20:30:32;104059.19;;;6.45;100.00
19236;BME280;9752;54.270;12.470;2023-02-12T20:35:34;104045.16;;;6.43;100.00
19236;BME280;9752;54.270;12.470;2023-02-12T20:40:38;104027.31;;;6.44;100.00
19236;BME280;9752;54.270;12.470;2023-02-12T20:45:39;104015.72;;;6.48;100.00
19236;BME280;9752;54.270;12.470;2023-02-12T20:50:41;103992.00;;;6.51;100.00
19236;BME280;9752;54.270;12.470;2023-02-12T20:55:44;103975.22;;;6.47;100.00
19236;BME280;9752;54.270;12.470;2023-02-12T21:00:46;103965.41;;;6.44;100.00
19236;BME280;9752;54.270;12.470;2023-02-12T21:05:47;103955.44;;;6.40;100.00
19236;BME280;9752;54.270;12.470;2023-02-12T21:10:58;103951.59;;;6.44;100.00
19236;BME280;9752;54.270;12.470;2023-02-12T21:16:05;103935.78;;;6.48;100.00
19236;BME280;9752;54.270;12.470;2023-02-12T21:21:10;103928.94;;;6.41;100.00
19236;BME280;9752;54.270;12.470;2023-02-12T21:26:16;103919.06;;;6.52;100.00
19236;BME280;9752;54.270;12.470;2023-02-12T21:31:19;103910.22;;;6.50;100.00
19236;BME280;9752;54.270;12.470;2023-02-12T21:36:23;103904.69;;;6.54;100.00
19236;BME280;9752;54.270;12.470;2023-02-12T21:41:28;103883.16;;;6.53;100.00
19236;BME280;9752;54.270;12.470;2023-02-12T21:46:30;103863.28;;;6.59;100.00
19236;BME280;9752;54.270;12.470;2023-02-12T21:51:34;103861.97;;;6.56;100.00
19236;BME280;9752;54.270;12.470;2023-02-12T21:56:39;103857.00;;;6.57;100.00
19236;BME280;9752;54.270;12.470;2023-02-12T22:01:43;103847.78;;;6.52;100.00
19236;BME280;9752;54.270;12.470;2023-02-12T22:06:47;103849.78;;;6.48;100.00
19236;BME280;9752;54.270;12.470;2023-02-12T22:11:51;103855.13;;;6.49;100.00
19236;BME280;9752;54.270;12.470;2023-02-12T22:16:52;103849.78;;;6.48;100.00
19236;BME280;9752;54.270;12.470;2023-02-12T22:21:54;103844.81;;;6.49;100.00
19236;BME280;9752;54.270;12.470;2023-02-12T22:26:57;103839.47;;;6.48;100.00
19236;BME280;9752;54.270;12.470;2023-02-12T22:31:59;103840.38;;;6.48;100.00
19236;BME280;9752;54.270;12.470;2023-02-12T22:37:01;103837.09;;;6.49;100.00
19236;BME280;9752;54.270;12.470;2023-02-12T22:42:04;103835.63;;;6.51;100.00
19236;BME280;9752;54.270;12.470;2023-02-12T22:47:06;103839.66;;;6.49;100.00
19236;BME280;9752;54.270;12.470;2023-02-12T22:52:08;103819.75;;;6.48;100.00
19236;BME280;9752;54.270;12.470;2023-02-12T22:57:11;103809.09;;;6.45;100.00
19236;BME280;9752;54.270;12.470;2023-02-12T23:02:13;103811.47;;;6.43;100.00
19236;BME280;9752;54.270;12.470;2023-02-12T23:07:15;103792.66;;;6.44;100.00
19236;BME280;9752;54.270;12.470;2023-02-12T23:12:18;103792.47;;;6.43;100.00
19236;BME280;9752;54.270;12.470;2023-02-12T23:17:19;103776.28;;;6.44;100.00
19236;BME280;9752;54.270;12.470;2023-02-12T23:22:21;103770.00;;;6.42;100.00
19236;BME280;9752;54.270;12.470;2023-02-12T23:27:24;103756.38;;;6.43;100.00
19236;BME280;9752;54.270;12.470;2023-02-12T23:32:26;103765.06;;;6.43;100.00
19236;BME280;9752;54.270;12.470;2023-02-12T23:37:27;103747.72;;;6.42;100.00
19236;BME280;9752;54.270;12.470;2023-02-12T23:42:31;103760.41;;;6.41;100.00
19236;BME280;9752;54.270;12.470;2023-02-12T23:47:32;103756.03;;;6.47;100.00
19236;BME280;9752;54.270;12.470;2023-02-12T23:52:34;103753.09;;;6.51;100.00
19236;BME280;9752;54.270;12.470;2023-02-12T23:57:37;103749.41;;;6.49;100.00
